createdAt,value
2018-11-29T00:02:45.940Z,66.33
2018-11-29T00:06:49.500Z,66.23
2018-11-29T00:10:53.060Z,66.36
2018-11-29T00:14:56.520Z,66.64
2018-11-29T00:19:00.109Z,66.45
2018-11-29T00:23:03.707Z,66.71
2018-11-29T00:27:07.212Z,67.12
2018-11-29T00:31:10.813Z,66.55
2018-11-29T00:35:15.054Z,66.62
2018-11-29T00:39:18.540Z,66.92
2018-11-29T00:43:22.190Z,66.78
2018-11-29T00:47:25.735Z,66.87
2018-11-29T00:51:29.303Z,66.91
2018-11-29T00:55:32.836Z,66.83
2018-11-29T00:59:36.660Z,67.19
2018-11-29T01:03:40.254Z,67.56
2018-11-29T01:07:43.777Z,67.86
2018-11-29T01:11:47.320Z,67.38
2018-11-29T01:15:50.848Z,67.85
2018-11-29T01:19:54.373Z,68.03
2018-11-29T01:23:57.890Z,68.19
2018-11-29T01:28:01.410Z,68.38
2018-11-29T01:32:04.911Z,67.55
2018-11-29T01:36:14.961Z,67.84
2018-11-29T01:40:22.631Z,67.78
2018-11-29T01:44:26.599Z,67.74
2018-11-29T01:48:30.155Z,68.12
2018-11-29T01:52:33.817Z,67.39
2018-11-29T01:56:37.330Z,67.26
2018-11-29T02:00:41.226Z,66.93
2018-11-29T02:04:44.757Z,67.38
2018-11-29T02:08:48.238Z,67.38
2018-11-29T02:12:53.148Z,67.33
2018-11-29T02:16:56.613Z,67.31
2018-11-29T02:21:00.137Z,67.52
2018-11-29T02:25:03.654Z,67.10
2018-11-29T02:29:07.128Z,67.38
2018-11-29T02:33:10.646Z,67.05
2018-11-29T02:37:16.302Z,67.25
2018-11-29T02:41:20.238Z,67.44
2018-11-29T02:45:24.905Z,67.35
2018-11-29T02:49:28.359Z,67.55
2018-11-29T02:53:31.924Z,67.18
2018-11-29T02:57:35.979Z,67.36
2018-11-29T03:01:39.704Z,67.49
2018-11-29T03:05:51.512Z,67.55
2018-11-29T03:09:55.058Z,67.92
2018-11-29T03:13:58.639Z,67.99
2018-11-29T03:18:02.530Z,68.24
2018-11-29T03:22:06.420Z,67.93
2018-11-29T03:26:10.228Z,67.79
2018-11-29T03:30:17.174Z,67.86
2018-11-29T03:34:20.704Z,68.36
2018-11-29T03:38:24.264Z,69.03
2018-11-29T03:42:27.747Z,68.89
2018-11-29T03:46:31.334Z,69.07
2018-11-29T03:50:34.944Z,69.19
2018-11-29T03:54:38.503Z,68.98
2018-11-29T03:58:42.109Z,68.86
2018-11-29T04:02:46.747Z,69.04
2018-11-29T04:06:50.271Z,69.01
2018-11-29T04:10:53.849Z,69.01
2018-11-29T04:14:57.378Z,69.36
2018-11-29T04:19:01.563Z,69.40
2018-11-29T04:23:05.183Z,69.63
2018-11-29T04:27:08.664Z,69.68
2018-11-29T04:31:12.131Z,70.34
2018-11-29T04:35:15.652Z,70.52
2018-11-29T04:39:19.096Z,70.08
2018-11-29T04:43:22.648Z,70.17
2018-11-29T04:47:26.145Z,69.89
2018-11-29T04:51:29.865Z,70.04
2018-11-29T04:55:33.377Z,69.89
2018-11-29T04:59:36.835Z,70.33
2018-11-29T05:03:40.419Z,70.09
2018-11-29T05:07:44.010Z,69.98
2018-11-29T05:11:47.932Z,70.02
2018-11-29T05:15:51.507Z,70.49
2018-11-29T05:19:55.260Z,70.55
2018-11-29T05:24:03.239Z,70.54
2018-11-29T05:28:06.842Z,70.38
2018-11-29T05:32:10.362Z,69.94
2018-11-29T05:36:13.851Z,70.19
2018-11-29T05:40:17.913Z,70.12
2018-11-29T05:44:21.520Z,70.67
2018-11-29T05:48:24.996Z,70.11
2018-11-29T05:52:28.542Z,69.85
2018-11-29T05:56:32.063Z,69.98
2018-11-29T06:00:35.646Z,70.20
2018-11-29T06:04:46.563Z,70.59
2018-11-29T06:08:50.188Z,69.83
2018-11-29T06:12:53.754Z,70.12
2018-11-29T06:16:57.286Z,70.06
2018-11-29T06:21:00.929Z,70.63
2018-11-29T06:25:04.425Z,70.32
2018-11-29T06:29:08.043Z,70.07
2018-11-29T06:33:11.595Z,70.32
2018-11-29T06:37:15.162Z,69.78
2018-11-29T06:41:18.712Z,69.85
2018-11-29T06:45:22.651Z,69.73
2018-11-29T06:49:26.154Z,70.42
2018-11-29T06:53:34.929Z,70.20
2018-11-29T06:57:38.428Z,70.11
2018-11-29T07:01:41.919Z,69.92
2018-11-29T07:05:45.436Z,70.15
2018-11-29T07:09:48.929Z,70.01
2018-11-29T07:13:52.474Z,69.85
2018-11-29T07:17:56.242Z,70.09
2018-11-29T07:21:59.744Z,70.06
2018-11-29T07:26:03.355Z,69.73
2018-11-29T07:30:14.412Z,69.52
2018-11-29T07:34:17.987Z,69.86
2018-11-29T07:38:21.516Z,69.78
2018-11-29T07:42:25.094Z,69.42
2018-11-29T07:46:28.553Z,69.74
2018-11-29T07:50:32.060Z,69.76
2018-11-29T07:54:35.586Z,69.93
2018-11-29T07:58:39.052Z,69.54
2018-11-29T08:02:42.541Z,70.33
2018-11-29T08:06:46.072Z,69.91
2018-11-29T08:10:49.736Z,70.05
2018-11-29T08:14:53.600Z,70.43
2018-11-29T08:18:57.088Z,70.26
2018-11-29T08:23:00.849Z,70.10
2018-11-29T08:27:04.456Z,70.69
2018-11-29T08:31:07.925Z,71.35
2018-11-29T08:35:13.413Z,71.45
2018-11-29T08:39:16.893Z,71.72
2018-11-29T08:43:20.629Z,71.96
2018-11-29T08:47:24.202Z,72.88
2018-11-29T08:51:27.847Z,72.52
2018-11-29T08:55:31.378Z,72.83
2018-11-29T08:59:34.933Z,74.04
2018-11-29T09:03:38.873Z,73.26
2018-11-29T09:07:43.665Z,73.75
2018-11-29T09:11:47.224Z,72.99
2018-11-29T09:15:50.702Z,73.90
2018-11-29T09:19:54.154Z,73.93
2018-11-29T09:23:57.729Z,72.90
2018-11-29T09:28:01.476Z,73.05
2018-11-29T09:32:05.972Z,72.20
2018-11-29T09:36:09.547Z,71.69
2018-11-29T09:40:15.200Z,71.93
2018-11-29T09:44:18.842Z,71.39
2018-11-29T09:48:22.611Z,71.12
2018-11-29T09:52:26.861Z,71.08
2018-11-29T09:56:30.495Z,70.92
2018-11-29T10:00:34.303Z,71.11
2018-11-29T10:04:37.788Z,70.42
2018-11-29T10:08:41.406Z,69.42
2018-11-29T10:12:45.171Z,69.28
2018-11-29T10:16:48.737Z,69.07
2018-11-29T10:20:52.325Z,68.98
2018-11-29T10:24:55.877Z,68.99
2018-11-29T10:28:59.397Z,68.28
2018-11-29T10:33:02.943Z,67.77
2018-11-29T10:37:06.647Z,67.45
2018-11-29T10:41:10.161Z,66.65
2018-11-29T10:45:16.136Z,66.54
2018-11-29T10:49:19.685Z,66.44
2018-11-29T10:53:23.147Z,66.39
2018-11-29T10:57:26.727Z,65.53
2018-11-29T11:01:31.656Z,65.21
2018-11-29T11:05:35.177Z,64.74
2018-11-29T11:09:38.712Z,63.82
2018-11-29T11:13:42.315Z,63.91
2018-11-29T11:17:45.840Z,63.56
2018-11-29T11:21:49.370Z,62.73
2018-11-29T11:25:53.016Z,62.68
2018-11-29T11:29:56.602Z,61.43
2018-11-29T11:34:00.157Z,62.65
2018-11-29T11:38:05.031Z,62.18
2018-11-29T11:42:08.625Z,62.42
2018-11-29T11:46:12.269Z,62.92
2018-11-29T11:50:20.878Z,61.65
2018-11-29T11:54:24.381Z,61.47
2018-11-29T11:58:27.923Z,61.25
2018-11-29T12:02:31.576Z,61.59
2018-11-29T12:06:35.140Z,60.81
2018-11-29T12:10:40.396Z,61.08
2018-11-29T12:14:43.935Z,61.65
2018-11-29T12:18:47.609Z,61.37
2018-11-29T12:22:51.321Z,60.76
2018-11-29T12:26:54.865Z,60.77
2018-11-29T12:31:06.060Z,61.70
2018-11-29T12:35:12.989Z,59.89
2018-11-29T12:39:19.336Z,60.25
2018-11-29T12:43:23.137Z,60.36
2018-11-29T12:47:26.966Z,60.61
2018-11-29T12:51:30.578Z,59.61
2018-11-29T12:55:34.400Z,59.75
2018-11-29T12:59:38.284Z,59.83
2018-11-29T13:03:42.125Z,58.81
2018-11-29T13:07:45.717Z,59.19
2018-11-29T13:11:49.229Z,59.92
2018-11-29T13:15:53.097Z,58.91
2018-11-29T13:19:56.820Z,58.53
2018-11-29T13:24:03.118Z,58.00
2018-11-29T13:28:07.485Z,57.99
2018-11-29T13:32:11.441Z,58.30
2018-11-29T13:36:14.986Z,57.52
2018-11-29T13:44:22.188Z,57.80
2018-11-29T13:48:25.721Z,57.22
2018-11-29T13:52:29.936Z,58.36
2018-11-29T13:56:34.201Z,58.55
2018-11-29T14:00:40.257Z,58.91
2018-11-29T14:04:43.900Z,59.66
2018-11-29T14:08:47.856Z,58.85
2018-11-29T14:12:52.491Z,59.47
2018-11-29T14:16:56.476Z,59.51
2018-11-29T14:20:59.967Z,59.71
2018-11-29T14:25:10.516Z,59.57
2018-11-29T14:29:14.479Z,59.54
2018-11-29T14:33:18.701Z,59.03
2018-11-29T14:37:22.477Z,59.46
2018-11-29T14:41:26.027Z,60.18
2018-11-29T14:45:29.495Z,60.02
2018-11-29T14:49:33.426Z,59.48
2018-11-29T14:53:37.005Z,59.61
2018-11-29T14:57:53.798Z,60.27
2018-11-29T15:01:57.538Z,60.49
2018-11-29T15:06:02.133Z,60.37
2018-11-29T15:10:07.749Z,60.77
2018-11-29T15:14:11.295Z,60.72
2018-11-29T15:18:15.051Z,60.94
2018-11-29T15:22:18.678Z,61.17
2018-11-29T15:26:22.761Z,61.35
2018-11-29T15:30:26.313Z,61.35
2018-11-29T15:34:29.818Z,61.66
2018-11-29T15:38:33.419Z,61.81
2018-11-29T15:42:36.937Z,62.01
2018-11-29T15:46:40.421Z,61.93
2018-11-29T15:50:43.982Z,62.01
2018-11-29T15:54:47.526Z,62.78
2018-11-29T15:58:52.013Z,62.13
2018-11-29T16:02:56.690Z,63.60
2018-11-29T16:07:00.233Z,63.99
2018-11-29T16:11:03.777Z,62.58
2018-11-29T16:15:10.400Z,61.83
2018-11-29T16:19:14.012Z,62.47
2018-11-29T16:23:17.988Z,61.82
2018-11-29T16:27:21.464Z,62.08
2018-11-29T16:31:25.025Z,62.55
2018-11-29T16:35:28.538Z,62.97
2018-11-29T16:39:32.112Z,63.00
2018-11-29T16:43:35.608Z,63.33
2018-11-29T16:47:39.269Z,63.57
2018-11-29T16:51:42.815Z,63.09
2018-11-29T16:55:46.286Z,64.38
2018-11-29T16:59:49.836Z,64.15
2018-11-29T17:03:53.360Z,64.79
2018-11-29T17:07:56.873Z,64.72
2018-11-29T17:12:00.392Z,65.26
2018-11-29T17:16:04.097Z,66.01
2018-11-29T17:20:13.045Z,65.63
2018-11-29T17:24:16.581Z,66.41
2018-11-29T17:28:20.121Z,66.90
2018-11-29T17:32:23.629Z,67.19
2018-11-29T17:36:27.267Z,67.96
2018-11-29T17:40:31.085Z,67.60
2018-11-29T17:44:34.622Z,67.90
2018-11-29T17:48:38.137Z,68.04
2018-11-29T17:52:41.652Z,68.26
2018-11-29T17:56:45.124Z,68.96
2018-11-29T18:00:50.320Z,69.60
2018-11-29T18:04:53.828Z,69.32
2018-11-29T18:08:57.425Z,69.30
2018-11-29T18:13:17.284Z,70.15
2018-11-29T18:17:20.838Z,69.80
2018-11-29T18:21:24.347Z,70.60
2018-11-29T18:25:27.907Z,70.36
2018-11-29T18:29:31.746Z,70.74
2018-11-29T18:33:35.850Z,71.26
2018-11-29T18:37:40.988Z,70.63
2018-11-29T18:41:44.797Z,70.69
2018-11-29T18:45:48.642Z,71.01
2018-11-29T18:49:52.225Z,70.57
2018-11-29T18:53:56.031Z,70.54
2018-11-29T18:58:00.274Z,70.72
2018-11-29T19:02:05.914Z,70.37
2018-11-29T19:06:09.850Z,70.46
2018-11-29T19:10:17.472Z,70.17
2018-11-29T19:14:20.965Z,70.19
2018-11-29T19:18:24.554Z,71.15
2018-11-29T19:22:28.061Z,70.42
2018-11-29T19:26:31.917Z,71.26
2018-11-29T19:30:35.881Z,70.56
2018-11-29T19:34:39.450Z,70.99
2018-11-29T19:38:43.240Z,71.08
2018-11-29T19:42:46.815Z,70.35
2018-11-29T19:46:50.589Z,70.53
2018-11-29T19:50:54.114Z,71.70
2018-11-29T19:54:57.650Z,71.20
2018-11-29T19:59:02.363Z,71.01
2018-11-29T20:03:06.166Z,70.86
2018-11-29T20:07:09.741Z,71.19
2018-11-29T20:11:13.294Z,71.37
2018-11-29T20:15:19.455Z,71.36
2018-11-29T20:19:22.927Z,71.67
2018-11-29T20:23:26.414Z,71.76
2018-11-29T20:27:29.940Z,71.54
2018-11-29T20:31:33.567Z,71.29
2018-11-29T20:35:37.043Z,72.12
2018-11-29T20:39:40.567Z,72.11
2018-11-29T20:43:44.055Z,72.01
2018-11-29T20:47:48.159Z,72.01
2018-11-29T20:51:51.695Z,71.71
2018-11-29T20:55:55.134Z,71.89
2018-11-29T20:59:58.653Z,72.63
2018-11-29T21:04:02.188Z,72.97
2018-11-29T21:08:06.791Z,73.00
2018-11-29T21:12:10.374Z,72.40
2018-11-29T21:16:13.941Z,72.85
2018-11-29T21:20:20.296Z,72.79
2018-11-29T21:24:23.841Z,72.95
2018-11-29T21:28:29.206Z,73.04
2018-11-29T21:32:33.284Z,73.19
2018-11-29T21:36:36.756Z,73.86
2018-11-29T21:40:40.790Z,73.09
2018-11-29T21:44:44.288Z,74.10
2018-11-29T21:48:50.135Z,74.08
2018-11-29T21:52:54.877Z,73.37
2018-11-29T21:56:58.365Z,73.71
2018-11-29T22:01:01.923Z,74.20
2018-11-29T22:05:05.953Z,74.14
2018-11-29T22:09:09.545Z,74.50
2018-11-29T22:13:13.092Z,73.87
2018-11-29T22:17:16.694Z,74.13
2018-11-29T22:21:20.875Z,73.89
2018-11-29T22:25:24.461Z,73.65
2018-11-29T22:29:28.026Z,74.07
2018-11-29T22:33:31.847Z,73.80
2018-11-29T22:37:35.508Z,74.15
2018-11-29T22:41:39.135Z,73.55
2018-11-29T22:45:42.753Z,73.51
2018-11-29T22:49:46.269Z,73.52
2018-11-29T22:53:49.792Z,73.28
2018-11-29T22:57:53.312Z,73.94
2018-11-29T23:01:56.881Z,73.83
2018-11-29T23:06:00.434Z,73.38
2018-11-29T23:10:04.755Z,73.58
2018-11-29T23:14:09.046Z,73.25
2018-11-29T23:18:12.711Z,73.84
2018-11-29T23:22:16.200Z,73.61
2018-11-29T23:26:19.711Z,73.56
2018-11-29T23:30:23.255Z,73.79
2018-11-29T23:34:26.765Z,73.44
2018-11-29T23:38:30.273Z,73.54
2018-11-29T23:42:33.868Z,73.43
2018-11-29T23:46:37.413Z,73.13
2018-11-29T23:50:40.925Z,73.36
2018-11-29T23:54:44.467Z,73.66
2018-11-29T23:58:48.000Z,73.78
